createdAt,value
2019-02-26T00:01:50.717Z,-1.37
2019-02-26T00:06:55.800Z,-1.55
2019-02-26T00:12:01.524Z,-1.17
2019-02-26T00:17:08.729Z,-0.83
2019-02-26T00:22:13.869Z,-1.25
2019-02-26T00:27:18.831Z,-1.02
2019-02-26T00:32:23.565Z,-1.54
2019-02-26T00:37:28.424Z,-1.54
2019-02-26T00:42:36.056Z,-2.04
2019-02-26T00:47:41.174Z,-1.90
2019-02-26T00:52:47.038Z,-2.27
2019-02-26T00:57:51.785Z,-2.42
2019-02-26T01:02:56.524Z,-2.04
2019-02-26T01:08:01.174Z,-2.28
2019-02-26T01:13:07.266Z,-1.88
2019-02-26T01:18:12.284Z,-1.92
2019-02-26T01:23:18.729Z,-3.04
2019-02-26T01:28:24.832Z,-2.44
2019-02-26T01:33:30.283Z,-2.46
2019-02-26T01:38:37.438Z,-2.70
2019-02-26T01:43:41.938Z,-2.39
2019-02-26T01:48:46.679Z,-2.23
2019-02-26T01:53:53.271Z,-2.18
2019-02-26T01:59:02.150Z,-2.62
2019-02-26T02:04:03.887Z,-2.00
2019-02-26T02:09:11.340Z,-2.65
2019-02-26T02:14:17.065Z,-2.65
2019-02-26T02:19:23.399Z,-2.63
2019-02-26T02:24:28.275Z,-2.85
2019-02-26T02:29:33.899Z,-3.59
2019-02-26T02:34:40.037Z,-2.90
2019-02-26T02:39:44.973Z,-2.75
2019-02-26T02:44:52.564Z,-2.42
2019-02-26T02:49:55.896Z,-3.28
2019-02-26T02:55:00.722Z,-2.57
2019-02-26T03:00:13.962Z,-2.25
2019-02-26T03:05:18.810Z,-2.55
2019-02-26T03:10:26.017Z,-2.20
2019-02-26T03:15:32.782Z,-1.85
2019-02-26T03:20:39.805Z,-2.17
2019-02-26T03:25:44.517Z,-2.06
2019-02-26T03:30:49.683Z,-2.06
2019-02-26T03:35:54.441Z,-2.07
2019-02-26T03:41:01.161Z,-2.36
2019-02-26T03:46:05.451Z,-2.88
2019-02-26T03:51:10.186Z,-2.85
2019-02-26T03:56:17.068Z,-2.91
2019-02-26T04:01:21.558Z,-2.98
2019-02-26T04:06:26.363Z,-2.87
2019-02-26T04:11:31.002Z,-2.87
2019-02-26T04:16:37.780Z,-2.86
2019-02-26T04:22:21.001Z,-2.49
2019-02-26T04:27:48.098Z,-3.50
2019-02-26T04:33:14.059Z,-2.84
2019-02-26T04:38:34.241Z,-3.02
2019-02-26T04:43:47.813Z,-2.76
2019-02-26T04:48:52.644Z,-2.87
2019-02-26T04:53:59.480Z,-3.80
2019-02-26T04:59:06.208Z,-2.90
2019-02-26T05:04:10.038Z,-2.98
2019-02-26T05:09:15.954Z,-3.06
2019-02-26T05:14:23.425Z,-2.98
2019-02-26T05:19:27.129Z,-3.60
2019-02-26T05:24:31.873Z,-2.86
2019-02-26T05:29:40.418Z,-2.98
2019-02-26T05:34:45.348Z,-2.55
2019-02-26T05:39:51.692Z,-2.69
2019-02-26T05:44:59.077Z,-2.46
2019-02-26T05:50:03.806Z,-2.05
2019-02-26T05:55:08.835Z,-1.29
2019-02-26T06:00:18.220Z,-1.23
2019-02-26T06:05:23.255Z,-0.87
2019-02-26T06:10:29.841Z,0.31
2019-02-26T06:15:34.938Z,1.17
2019-02-26T06:20:40.003Z,0.37
2019-02-26T06:25:44.725Z,1.90
2019-02-26T06:30:50.585Z,3.51
2019-02-26T06:35:59.839Z,3.14
2019-02-26T06:41:06.557Z,3.07
2019-02-26T06:46:12.284Z,2.76
2019-02-26T06:51:19.081Z,1.81
2019-02-26T06:56:23.960Z,2.55
2019-02-26T07:01:32.376Z,1.62
2019-02-26T07:06:38.658Z,1.83
2019-02-26T07:11:43.408Z,1.79
2019-02-26T07:16:48.149Z,1.59
2019-02-26T07:21:53.081Z,1.93
2019-02-26T07:26:58.863Z,2.19
2019-02-26T07:32:03.507Z,2.37
2019-02-26T07:37:09.333Z,2.35
2019-02-26T07:42:16.430Z,2.64
2019-02-26T07:47:22.108Z,2.35
2019-02-26T07:52:28.444Z,3.58
2019-02-26T07:57:33.259Z,3.98
2019-02-26T08:02:38.001Z,3.27
2019-02-26T08:07:44.422Z,3.86
2019-02-26T08:12:48.795Z,3.94
2019-02-26T08:17:57.364Z,3.49
2019-02-26T08:23:01.360Z,4.58
2019-02-26T08:28:07.069Z,3.90
2019-02-26T08:33:11.711Z,5.28
2019-02-26T08:38:16.414Z,4.95
2019-02-26T08:43:21.309Z,5.19
2019-02-26T08:48:27.008Z,5.49
2019-02-26T08:53:32.251Z,6.20
2019-02-26T08:58:40.629Z,7.28
2019-02-26T09:03:45.540Z,7.09
2019-02-26T09:08:51.059Z,7.04
2019-02-26T09:13:59.617Z,8.32
2019-02-26T09:19:05.280Z,9.12
2019-02-26T09:24:10.166Z,8.97
2019-02-26T09:29:17.326Z,8.40
2019-02-26T09:34:26.025Z,9.39
2019-02-26T09:39:29.463Z,9.22
2019-02-26T09:44:35.916Z,9.09
2019-02-26T09:49:41.151Z,9.69
2019-02-26T09:54:48.104Z,9.36
2019-02-26T09:59:54.669Z,9.97
2019-02-26T10:04:58.615Z,10.64
2019-02-26T10:10:05.448Z,11.06
2019-02-26T10:15:13.849Z,10.33
2019-02-26T10:20:22.809Z,10.92
2019-02-26T10:25:29.376Z,10.29
2019-02-26T10:30:38.298Z,10.79
2019-02-26T10:35:45.085Z,11.04
2019-02-26T10:40:53.965Z,10.79
2019-02-26T10:45:56.670Z,11.21
2019-02-26T10:51:06.030Z,11.01
2019-02-26T10:56:09.637Z,12.12
2019-02-26T11:01:14.387Z,12.63
2019-02-26T11:06:19.652Z,12.20
2019-02-26T11:11:24.786Z,12.69
2019-02-26T11:16:31.035Z,12.27
2019-02-26T11:21:36.421Z,12.51
2019-02-26T11:26:45.534Z,12.13
2019-02-26T11:31:51.251Z,12.47
2019-02-26T11:37:02.795Z,12.55
2019-02-26T11:42:11.547Z,12.40
2019-02-26T11:47:20.533Z,12.17
2019-02-26T11:52:24.641Z,12.82
2019-02-26T11:57:30.222Z,13.07
2019-02-26T12:02:37.055Z,12.33
2019-02-26T12:07:42.852Z,13.23
2019-02-26T12:12:48.412Z,12.76
2019-02-26T12:17:54.546Z,12.31
2019-02-26T12:23:00.174Z,13.22
2019-02-26T12:28:10.767Z,13.18
2019-02-26T12:33:18.119Z,13.61
2019-02-26T12:38:25.250Z,13.75
2019-02-26T12:43:33.230Z,13.87
2019-02-26T12:48:41.801Z,13.40
2019-02-26T12:53:49.153Z,12.87
2019-02-26T12:58:54.440Z,13.47
2019-02-26T13:03:57.876Z,13.51
2019-02-26T13:09:02.736Z,13.57
2019-02-26T13:14:09.017Z,13.30
2019-02-26T13:19:21.408Z,13.21
2019-02-26T13:24:26.100Z,13.42
2019-02-26T13:29:28.155Z,13.34
2019-02-26T13:34:32.896Z,13.17
2019-02-26T13:39:38.446Z,13.29
2019-02-26T13:44:44.118Z,13.24
2019-02-26T13:49:48.964Z,13.25
2019-02-26T13:54:57.196Z,13.23
2019-02-26T14:00:01.838Z,12.47
2019-02-26T14:05:10.359Z,12.79
2019-02-26T14:10:26.681Z,12.44
2019-02-26T14:15:35.898Z,12.38
2019-02-26T14:20:40.663Z,12.63
2019-02-26T14:25:47.492Z,12.42
2019-02-26T14:30:54.120Z,12.61
2019-02-26T14:35:59.705Z,12.65
2019-02-26T14:41:04.920Z,12.60
2019-02-26T14:46:09.711Z,12.60
2019-02-26T14:51:14.551Z,12.44
2019-02-26T14:56:21.614Z,12.40
2019-02-26T15:01:27.954Z,12.38
2019-02-26T15:06:34.104Z,12.40
2019-02-26T15:11:41.031Z,12.42
2019-02-26T15:16:48.057Z,12.28
2019-02-26T15:21:54.672Z,12.02
2019-02-26T15:26:59.637Z,11.94
2019-02-26T15:32:04.263Z,11.92
2019-02-26T15:37:09.324Z,11.81
2019-02-26T15:42:20.951Z,11.48
2019-02-26T15:47:30.468Z,10.85
2019-02-26T15:52:36.335Z,11.11
2019-02-26T15:57:41.402Z,10.96
2019-02-26T16:02:47.686Z,10.93
2019-02-26T16:07:55.426Z,10.29
2019-02-26T16:13:04.802Z,9.42
2019-02-26T16:18:11.087Z,9.03
2019-02-26T16:23:15.872Z,9.88
2019-02-26T16:28:20.925Z,9.35
2019-02-26T16:33:27.202Z,9.11
2019-02-26T16:38:32.044Z,8.78
2019-02-26T16:43:38.344Z,8.25
2019-02-26T16:48:44.707Z,8.59
2019-02-26T16:53:49.550Z,8.91
2019-02-26T16:58:54.218Z,8.79
2019-02-26T17:03:59.550Z,8.37
2019-02-26T17:09:06.350Z,8.69
2019-02-26T17:14:14.767Z,8.35
2019-02-26T17:19:19.721Z,7.98
2019-02-26T17:24:24.803Z,8.39
2019-02-26T17:29:32.483Z,8.22
2019-02-26T17:34:42.742Z,8.16
2019-02-26T17:39:49.454Z,8.10
2019-02-26T17:44:55.111Z,7.92
2019-02-26T17:50:02.787Z,7.57
2019-02-26T17:55:10.331Z,7.55
2019-02-26T18:00:21.348Z,8.45
2019-02-26T18:05:26.166Z,7.78
2019-02-26T18:10:31.216Z,7.51
2019-02-26T18:15:36.081Z,7.86
2019-02-26T18:20:41.489Z,7.89
2019-02-26T18:25:46.172Z,8.33
2019-02-26T18:30:51.319Z,8.84
2019-02-26T18:35:56.588Z,9.01
2019-02-26T18:41:01.410Z,9.05
2019-02-26T18:46:06.262Z,8.38
2019-02-26T18:51:14.315Z,8.31
2019-02-26T18:56:19.552Z,9.16
2019-02-26T19:01:24.579Z,9.08
2019-02-26T19:06:29.324Z,8.83
2019-02-26T19:11:34.164Z,8.14
2019-02-26T19:16:38.911Z,8.20
2019-02-26T19:21:44.455Z,8.22
2019-02-26T19:26:49.211Z,8.07
2019-02-26T19:31:54.160Z,7.96
2019-02-26T19:37:00.542Z,8.54
2019-02-26T19:42:06.788Z,8.45
2019-02-26T19:47:11.582Z,8.19
2019-02-26T19:52:18.981Z,8.16
2019-02-26T19:57:30.188Z,8.32
2019-02-26T20:02:38.294Z,8.26
2019-02-26T20:07:45.793Z,8.19
2019-02-26T20:12:51.666Z,7.88
2019-02-26T20:17:58.059Z,7.79
2019-02-26T20:23:05.202Z,7.97
2019-02-26T20:28:09.368Z,8.39
2019-02-26T20:33:14.231Z,7.92
2019-02-26T20:38:19.527Z,7.69
2019-02-26T20:43:25.950Z,8.08
2019-02-26T20:48:30.915Z,7.93
2019-02-26T20:53:38.836Z,8.43
2019-02-26T20:58:44.937Z,7.62
2019-02-26T21:03:52.307Z,7.77
2019-02-26T21:08:57.145Z,8.13
2019-02-26T21:14:02.974Z,8.54
2019-02-26T21:19:07.991Z,7.89
2019-02-26T21:24:12.912Z,8.55
2019-02-26T21:29:17.751Z,8.55
2019-02-26T21:34:22.500Z,8.55
2019-02-26T21:39:27.348Z,8.68
2019-02-26T21:44:32.094Z,8.61
2019-02-26T21:49:37.395Z,8.54
2019-02-26T21:54:42.874Z,8.31
2019-02-26T21:59:50.187Z,8.48
2019-02-26T22:04:55.788Z,8.61
2019-02-26T22:10:00.628Z,8.17
2019-02-26T22:15:10.001Z,8.72
2019-02-26T22:20:23.418Z,7.87
2019-02-26T22:25:21.905Z,7.57
2019-02-26T22:30:28.425Z,7.85
2019-02-26T22:35:32.929Z,8.04
2019-02-26T22:40:37.667Z,8.05
2019-02-26T22:45:42.411Z,7.85
2019-02-26T22:50:47.151Z,8.06
2019-02-26T22:55:51.997Z,8.34
2019-02-26T23:01:01.119Z,8.12
2019-02-26T23:06:07.427Z,8.38
2019-02-26T23:11:14.854Z,8.60
2019-02-26T23:16:20.634Z,8.63
2019-02-26T23:21:26.072Z,8.53
2019-02-26T23:26:32.388Z,8.20
2019-02-26T23:31:37.181Z,8.54
2019-02-26T23:36:43.457Z,8.31
2019-02-26T23:41:49.233Z,8.16
2019-02-26T23:46:53.968Z,8.06
2019-02-26T23:51:59.577Z,7.62
2019-02-26T23:57:04.375Z,6.60
